East Coulee, Canada
Current Conditions -  °F | °C
As of 3:00 AM on Sunday 25 Jan 2015 (Local Time) from CYYC Reporting Station
Broken Clouds Broken Clouds  
Wind Chill: 50°   Ceiling: 14000
Heat Index: 50°   Visibility: 15mi
Dew Point: 28°   Wind: 10mph
Humidity: 43%   Direction: 260°W
Pressure: 29.82"   Gusts: 20mph
Location:  51.33°N, 112.48°W
Report Text: CYYC 251000Z 26009G17KT 15SM BKN140 10/M02 A2982 RMK AC6 SLP113 DENSITY ALT 3900FT
Loading
Personal Weather Stations






























Interactive Weather Map New forecast layout! Learn more

10-Day Weather Forecast

Advertisements
Track Severe Weather on mobile